createdAt,value
2018-04-15T00:02:28.915Z,13.01
2018-04-15T00:03:29.091Z,12.93
2018-04-15T00:04:29.251Z,12.85
2018-04-15T00:05:29.419Z,13.03
2018-04-15T00:06:29.577Z,13.01
2018-04-15T00:07:29.743Z,12.93
2018-04-15T00:08:29.912Z,12.93
2018-04-15T00:09:30.069Z,12.94
2018-04-15T00:10:30.237Z,12.94
2018-04-15T00:11:30.410Z,12.90
2018-04-15T00:14:02.988Z,12.91
2018-04-15T00:15:03.151Z,12.94
2018-04-15T00:16:03.320Z,12.95
2018-04-15T00:17:03.473Z,12.98
2018-04-15T00:18:03.650Z,12.87
2018-04-15T00:19:03.803Z,12.97
2018-04-15T00:20:04.221Z,13.00
2018-04-15T00:21:04.111Z,13.01
2018-04-15T00:22:04.280Z,12.91
2018-04-15T00:23:04.446Z,12.87
2018-04-15T00:24:04.610Z,12.91
2018-04-15T00:25:04.772Z,12.90
2018-04-15T00:26:04.927Z,12.86
2018-04-15T00:27:05.103Z,12.90
2018-04-15T00:28:05.273Z,12.95
2018-04-15T00:30:37.842Z,13.03
2018-04-15T00:31:38.006Z,13.11
2018-04-15T00:32:38.170Z,13.12
2018-04-15T00:33:38.338Z,13.11
2018-04-15T00:34:38.544Z,13.09
2018-04-15T00:35:38.692Z,13.08
2018-04-15T00:36:41.560Z,13.04
2018-04-15T00:37:38.977Z,12.97
2018-04-15T00:38:39.141Z,12.91
2018-04-15T00:39:42.066Z,13.03
2018-04-15T00:42:21.884Z,12.91
2018-04-15T00:43:22.046Z,12.93
2018-04-15T00:44:22.209Z,12.87
2018-04-15T00:45:22.382Z,12.85
2018-04-15T00:46:22.543Z,12.82
2018-04-15T00:47:22.709Z,12.82
2018-04-15T00:48:22.885Z,12.76
2018-04-15T00:49:23.035Z,12.76
2018-04-15T00:50:23.208Z,12.78
2018-04-15T00:51:23.369Z,12.70
2018-04-15T00:54:05.937Z,12.72
2018-04-15T00:55:06.104Z,12.62
2018-04-15T00:56:06.266Z,12.61
2018-04-15T00:57:06.437Z,12.64
2018-04-15T00:58:06.614Z,12.60
2018-04-15T00:59:06.788Z,12.62
2018-04-15T01:00:07.675Z,12.60
2018-04-15T01:01:07.081Z,12.58
2018-04-15T01:02:07.257Z,12.54
2018-04-15T01:03:07.421Z,12.55
2018-04-15T01:08:38.041Z,12.67
2018-04-15T01:09:38.212Z,12.57
2018-04-15T01:10:38.386Z,12.62
2018-04-15T01:11:38.547Z,12.55
2018-04-15T01:12:38.709Z,12.55
2018-04-15T01:13:38.872Z,12.55
2018-04-15T01:14:39.039Z,12.54
2018-04-15T01:15:39.207Z,12.55
2018-04-15T01:16:39.367Z,12.62
2018-04-15T01:17:39.530Z,12.64
2018-04-15T01:18:39.705Z,12.67
2018-04-15T01:19:39.863Z,12.62
2018-04-15T01:20:40.029Z,12.58
2018-04-15T01:21:40.196Z,12.53
2018-04-15T01:22:40.361Z,12.58
2018-04-15T01:25:22.633Z,12.62
2018-04-15T01:26:22.793Z,12.70
2018-04-15T01:27:22.969Z,12.70
2018-04-15T01:28:23.132Z,12.76
2018-04-15T01:29:23.302Z,12.68
2018-04-15T01:30:23.466Z,12.72
2018-04-15T01:31:23.631Z,12.62
2018-04-15T01:32:23.792Z,12.72
2018-04-15T01:33:23.958Z,12.65
2018-04-15T01:34:24.129Z,12.67
2018-04-15T01:35:24.296Z,12.67
2018-04-15T01:36:24.464Z,12.73
2018-04-15T01:37:24.627Z,12.61
2018-04-15T01:38:24.797Z,12.61
2018-04-15T01:39:24.963Z,12.61
2018-04-15T01:42:07.554Z,12.49
2018-04-15T01:43:07.722Z,12.47
2018-04-15T01:44:07.888Z,12.45
2018-04-15T01:45:08.059Z,12.45
2018-04-15T01:46:08.215Z,12.49
2018-04-15T01:47:08.380Z,12.47
2018-04-15T01:48:08.544Z,12.45
2018-04-15T01:49:08.717Z,12.57
2018-04-15T01:50:08.872Z,12.61
2018-04-15T01:51:09.035Z,12.57
2018-04-15T01:52:09.201Z,12.49
2018-04-15T01:53:09.365Z,12.55
2018-04-15T01:54:09.546Z,12.50
2018-04-15T01:55:10.270Z,12.54
2018-04-15T01:56:09.807Z,12.50
2018-04-15T01:58:52.368Z,12.49
2018-04-15T01:59:52.532Z,12.55
2018-04-15T02:00:52.699Z,12.60
2018-04-15T02:01:52.860Z,12.39
2018-04-15T02:02:53.024Z,12.43
2018-04-15T02:03:53.194Z,12.50
2018-04-15T02:04:53.351Z,12.47
2018-04-15T02:05:53.522Z,12.47
2018-04-15T02:06:53.677Z,12.43
2018-04-15T02:07:53.847Z,12.47
2018-04-15T02:08:54.012Z,12.45
2018-04-15T02:09:54.189Z,12.45
2018-04-15T02:10:54.340Z,12.43
2018-04-15T02:11:54.514Z,12.40
2018-04-15T02:12:54.675Z,12.45
2018-04-15T02:15:37.232Z,12.42
2018-04-15T02:16:37.392Z,12.47
2018-04-15T02:17:37.570Z,12.43
2018-04-15T02:18:37.726Z,12.40
2018-04-15T02:19:37.889Z,12.43
2018-04-15T02:20:38.063Z,12.39
2018-04-15T02:21:45.385Z,12.40
2018-04-15T02:22:38.425Z,12.39
2018-04-15T02:23:38.592Z,12.28
2018-04-15T02:24:38.760Z,12.39
2018-04-15T02:25:38.942Z,12.25
2018-04-15T02:26:39.102Z,12.31
2018-04-15T02:27:39.263Z,12.28
2018-04-15T02:28:39.430Z,12.36
2018-04-15T02:29:39.597Z,12.39
2018-04-15T02:30:39.762Z,12.32
2018-04-15T02:31:39.935Z,12.35
2018-04-15T02:32:40.094Z,12.31
2018-04-15T02:33:40.263Z,12.35
2018-04-15T02:34:40.427Z,12.31
2018-04-15T02:35:40.596Z,12.35
2018-04-15T02:38:12.851Z,12.31
2018-04-15T02:39:13.013Z,12.29
2018-04-15T02:40:13.169Z,12.32
2018-04-15T02:41:13.337Z,12.32
2018-04-15T02:42:13.503Z,12.35
2018-04-15T02:43:13.666Z,12.25
2018-04-15T02:44:13.831Z,12.31
2018-04-15T02:45:13.998Z,12.31
2018-04-15T02:46:14.158Z,12.36
2018-04-15T02:47:14.342Z,12.43
2018-04-15T02:49:56.909Z,12.39
2018-04-15T02:50:57.064Z,12.31
2018-04-15T02:51:57.232Z,12.42
2018-04-15T02:52:57.388Z,12.42
2018-04-15T02:53:57.554Z,12.32
2018-04-15T02:54:57.718Z,12.28
2018-04-15T02:55:57.884Z,12.35
2018-04-15T02:56:58.046Z,12.35
2018-04-15T02:57:58.214Z,12.31
2018-04-15T02:58:58.380Z,12.40
2018-04-15T03:01:40.930Z,12.31
2018-04-15T03:02:41.090Z,12.28
2018-04-15T03:03:41.251Z,12.39
2018-04-15T03:04:41.424Z,12.27
2018-04-15T03:05:41.587Z,12.37
2018-04-15T03:06:41.755Z,12.35
2018-04-15T03:07:41.914Z,12.31
2018-04-15T03:08:42.088Z,12.24
2018-04-15T03:09:42.253Z,12.31
2018-04-15T03:10:42.432Z,12.29
2018-04-15T03:13:14.963Z,12.27
2018-04-15T03:14:15.126Z,12.29
2018-04-15T03:15:15.289Z,12.24
2018-04-15T03:16:15.461Z,12.13
2018-04-15T03:17:15.615Z,12.27
2018-04-15T03:18:15.789Z,12.22
2018-04-15T03:19:15.954Z,12.20
2018-04-15T03:20:16.173Z,12.15
2018-04-15T03:21:16.298Z,12.21
2018-04-15T03:22:16.506Z,12.13
2018-04-15T03:24:58.735Z,12.12
2018-04-15T03:25:58.896Z,12.17
2018-04-15T03:26:59.068Z,12.10
2018-04-15T03:27:59.238Z,12.21
2018-04-15T03:28:59.409Z,12.06
2018-04-15T03:29:59.578Z,12.15
2018-04-15T03:30:59.743Z,12.15
2018-04-15T03:31:59.911Z,12.12
2018-04-15T03:33:00.071Z,12.12
2018-04-15T03:34:00.238Z,12.10
2018-04-15T03:35:00.391Z,12.10
2018-04-15T03:36:00.554Z,12.13
2018-04-15T03:37:00.715Z,12.18
2018-04-15T03:38:00.878Z,12.13
2018-04-15T03:39:01.045Z,12.15
2018-04-15T03:41:43.303Z,12.09
2018-04-15T03:42:43.472Z,12.03
2018-04-15T03:43:43.637Z,12.04
2018-04-15T03:44:43.808Z,12.09
2018-04-15T03:45:43.968Z,12.03
2018-04-15T03:46:44.139Z,11.94
2018-04-15T03:47:44.298Z,11.94
2018-04-15T03:48:44.457Z,11.97
2018-04-15T03:49:44.623Z,11.87
2018-04-15T03:50:44.791Z,11.97
2018-04-15T03:51:44.945Z,11.97
2018-04-15T03:52:45.120Z,11.95
2018-04-15T03:53:45.281Z,12.04
2018-04-15T03:54:45.465Z,12.03
2018-04-15T03:55:45.609Z,12.09
2018-04-15T03:58:18.181Z,11.94
2018-04-15T03:59:18.345Z,11.90
2018-04-15T04:00:18.510Z,12.06
2018-04-15T04:01:18.675Z,11.90
2018-04-15T04:02:18.839Z,11.94
2018-04-15T04:03:18.998Z,11.88
2018-04-15T04:04:19.163Z,11.86
2018-04-15T04:05:19.333Z,11.90
2018-04-15T04:06:19.488Z,11.86
2018-04-15T04:07:19.655Z,11.86
2018-04-15T04:08:19.822Z,11.88
2018-04-15T04:09:19.983Z,11.88
2018-04-15T04:10:20.154Z,11.84
2018-04-15T04:11:20.304Z,11.83
2018-04-15T04:12:20.483Z,11.78
2018-04-15T04:14:53.049Z,11.81
2018-04-15T04:15:53.233Z,11.78
2018-04-15T04:16:53.397Z,11.72
2018-04-15T04:17:53.562Z,11.78
2018-04-15T04:18:53.728Z,11.72
2018-04-15T04:19:53.901Z,11.68
2018-04-15T04:20:54.051Z,11.68
2018-04-15T04:21:54.295Z,11.65
2018-04-15T04:22:55.277Z,11.72
2018-04-15T04:23:54.463Z,11.59
2018-04-15T04:26:36.727Z,11.73
2018-04-15T04:27:36.882Z,11.69
2018-04-15T04:28:37.047Z,11.68
2018-04-15T04:29:37.235Z,11.63
2018-04-15T04:30:37.368Z,11.72
2018-04-15T04:31:37.544Z,11.63
2018-04-15T04:32:37.698Z,11.72
2018-04-15T04:33:37.885Z,11.70
2018-04-15T04:34:38.052Z,11.65
2018-04-15T04:35:38.207Z,11.59
2018-04-15T04:36:38.367Z,11.75
2018-04-15T04:37:38.537Z,11.68
2018-04-15T04:38:38.703Z,11.59
2018-04-15T04:39:38.866Z,11.66
2018-04-15T04:40:39.028Z,11.68
2018-04-15T04:43:11.325Z,11.68
2018-04-15T04:44:11.493Z,11.60
2018-04-15T04:45:11.657Z,11.60
2018-04-15T04:46:11.819Z,11.55
2018-04-15T04:47:11.994Z,11.59
2018-04-15T04:48:12.145Z,11.62
2018-04-15T04:49:12.299Z,11.62
2018-04-15T04:50:12.464Z,11.57
2018-04-15T04:51:12.632Z,11.62
2018-04-15T04:52:12.807Z,11.60
2018-04-15T04:53:12.963Z,11.52
2018-04-15T04:54:13.124Z,11.59
2018-04-15T04:55:13.288Z,11.51
2018-04-15T04:56:13.447Z,11.48
2018-04-15T04:57:13.621Z,11.47
2018-04-15T05:01:04.194Z,11.40
2018-04-15T05:02:04.356Z,11.30
2018-04-15T05:03:04.540Z,11.36
2018-04-15T05:04:04.702Z,11.43
2018-04-15T05:05:04.877Z,11.43
2018-04-15T05:06:05.033Z,11.36
2018-04-15T05:07:05.189Z,11.37
2018-04-15T05:08:05.372Z,11.43
2018-04-15T05:09:05.517Z,11.37
2018-04-15T05:10:05.671Z,11.37
2018-04-15T05:11:05.835Z,11.44
2018-04-15T05:12:06.005Z,11.50
2018-04-15T05:13:06.172Z,11.55
2018-04-15T05:14:06.360Z,11.55
2018-04-15T05:15:07.445Z,11.59
2018-04-15T05:17:49.274Z,11.72
2018-04-15T05:18:48.815Z,11.84
2018-04-15T05:19:48.979Z,11.78
2018-04-15T05:20:49.143Z,11.90
2018-04-15T05:21:49.309Z,11.87
2018-04-15T05:22:49.476Z,11.77
2018-04-15T05:23:49.643Z,11.78
2018-04-15T05:24:49.812Z,11.60
2018-04-15T05:25:49.988Z,11.57
2018-04-15T05:26:50.158Z,11.59
2018-04-15T05:27:50.325Z,11.57
2018-04-15T05:28:50.489Z,11.57
2018-04-15T05:29:50.647Z,11.62
2018-04-15T05:30:50.819Z,11.73
2018-04-15T05:31:50.984Z,11.77
2018-04-15T05:34:23.555Z,11.87
2018-04-15T05:35:23.721Z,11.99
2018-04-15T05:36:23.890Z,12.00
2018-04-15T05:37:24.050Z,12.06
2018-04-15T05:38:24.214Z,12.13
2018-04-15T05:39:24.381Z,12.22
2018-04-15T05:40:24.551Z,12.28
2018-04-15T05:41:24.713Z,12.29
2018-04-15T05:42:24.876Z,12.35
2018-04-15T05:43:25.041Z,12.28
2018-04-15T05:44:25.222Z,12.27
2018-04-15T05:45:25.387Z,12.31
2018-04-15T05:46:25.551Z,12.35
2018-04-15T05:47:25.714Z,12.42
2018-04-15T05:48:25.871Z,12.35
2018-04-15T05:50:58.453Z,12.37
2018-04-15T05:51:59.183Z,12.43
2018-04-15T05:52:58.731Z,12.46
2018-04-15T05:53:58.906Z,12.46
2018-04-15T05:54:59.074Z,12.54
2018-04-15T05:55:59.236Z,12.57
2018-04-15T05:57:00.101Z,12.60
2018-04-15T05:57:59.496Z,12.54
2018-04-15T05:58:59.663Z,12.57
2018-04-15T05:59:59.824Z,12.54
2018-04-15T06:00:59.980Z,12.61
2018-04-15T06:02:00.147Z,12.61
2018-04-15T06:03:00.307Z,12.65
2018-04-15T06:04:00.466Z,12.72
2018-04-15T06:05:00.648Z,12.70
2018-04-15T06:07:33.234Z,12.86
2018-04-15T06:08:33.399Z,12.90
2018-04-15T06:09:33.560Z,12.93
2018-04-15T06:10:33.727Z,13.04
2018-04-15T06:11:33.894Z,13.08
2018-04-15T06:12:34.059Z,13.13
2018-04-15T06:13:34.223Z,13.22
2018-04-15T06:14:34.400Z,13.05
2018-04-15T06:15:34.595Z,13.08
2018-04-15T06:16:34.807Z,13.18
2018-04-15T06:17:34.921Z,13.05
2018-04-15T06:18:35.946Z,13.23
2018-04-15T06:19:35.235Z,13.23
2018-04-15T06:20:35.400Z,13.33
2018-04-15T06:21:35.575Z,13.20
2018-04-15T06:24:07.847Z,13.22
2018-04-15T06:25:08.007Z,13.27
2018-04-15T06:26:08.171Z,13.28
2018-04-15T06:27:08.327Z,13.20
2018-04-15T06:28:08.500Z,13.28
2018-04-15T06:29:08.680Z,13.37
2018-04-15T06:30:08.836Z,13.33
2018-04-15T06:31:09.002Z,13.31
2018-04-15T06:32:09.164Z,13.31
2018-04-15T06:33:09.330Z,13.42
2018-04-15T06:35:41.601Z,13.08
2018-04-15T06:36:41.791Z,12.87
2018-04-15T06:37:41.933Z,12.65
2018-04-15T06:38:42.098Z,12.72
2018-04-15T06:39:42.265Z,12.53
2018-04-15T06:40:42.429Z,12.32
2018-04-15T06:41:42.592Z,12.25
2018-04-15T06:42:42.757Z,12.21
2018-04-15T06:43:42.921Z,12.25
2018-04-15T06:44:43.104Z,12.31
2018-04-15T06:45:43.244Z,12.22
2018-04-15T06:46:43.433Z,12.06
2018-04-15T06:47:43.590Z,12.27
2018-04-15T06:48:43.758Z,12.31
2018-04-15T06:49:43.923Z,12.42
2018-04-15T06:52:26.458Z,12.87
2018-04-15T06:53:26.632Z,12.70
2018-04-15T06:54:26.795Z,12.90
2018-04-15T06:55:26.962Z,13.01
2018-04-15T06:56:27.126Z,13.08
2018-04-15T06:57:27.290Z,13.08
2018-04-15T06:58:27.460Z,13.09
2018-04-15T06:59:27.624Z,13.12
2018-04-15T07:00:27.789Z,13.04
2018-04-15T07:01:28.011Z,13.12
2018-04-15T07:02:28.122Z,13.05
2018-04-15T07:03:28.287Z,13.05
2018-04-15T07:04:28.451Z,13.11
2018-04-15T07:05:28.615Z,13.23
2018-04-15T07:06:28.777Z,13.35
2018-04-15T07:09:01.056Z,13.53
2018-04-15T07:10:01.231Z,13.63
2018-04-15T07:11:01.412Z,13.62
2018-04-15T07:12:01.563Z,13.52
2018-04-15T07:13:01.735Z,13.27
2018-04-15T07:14:01.902Z,13.25
2018-04-15T07:15:02.068Z,13.13
2018-04-15T07:16:02.231Z,13.03
2018-04-15T07:17:02.396Z,12.93
2018-04-15T07:18:02.572Z,12.85
2018-04-15T07:20:35.126Z,12.94
2018-04-15T07:21:35.296Z,13.05
2018-04-15T07:22:35.451Z,13.13
2018-04-15T07:23:35.642Z,13.25
2018-04-15T07:24:35.805Z,13.23
2018-04-15T07:25:36.014Z,13.19
2018-04-15T07:26:36.155Z,13.41
2018-04-15T07:27:36.305Z,13.42
2018-04-15T07:28:36.478Z,13.52
2018-04-15T07:29:36.676Z,13.56
2018-04-15T07:30:36.868Z,13.67
2018-04-15T07:31:37.052Z,13.60
2018-04-15T07:32:37.185Z,13.54
2018-04-15T07:33:37.379Z,13.46
2018-04-15T07:34:37.558Z,13.47
2018-04-15T07:37:19.929Z,13.62
2018-04-15T07:38:20.095Z,13.65
2018-04-15T07:39:20.855Z,13.70
2018-04-15T07:40:20.390Z,13.56
2018-04-15T07:41:20.555Z,13.70
2018-04-15T07:42:20.705Z,13.75
2018-04-15T07:43:20.914Z,13.78
2018-04-15T07:44:21.024Z,13.83
2018-04-15T07:45:21.244Z,13.97
2018-04-15T07:46:21.379Z,13.96
2018-04-15T07:48:53.706Z,14.15
2018-04-15T07:49:53.839Z,14.29
2018-04-15T07:50:54.023Z,14.26
2018-04-15T07:52:02.150Z,14.44
2018-04-15T07:52:54.304Z,14.54
2018-04-15T07:53:55.181Z,14.55
2018-04-15T07:54:54.595Z,14.55
2018-04-15T07:55:54.761Z,14.45
2018-04-15T07:56:54.928Z,14.51
2018-04-15T07:57:55.092Z,14.55
2018-04-15T07:58:55.260Z,14.50
2018-04-15T07:59:55.424Z,14.44
2018-04-15T08:00:55.600Z,14.47
2018-04-15T08:01:56.601Z,14.48
2018-04-15T08:02:55.911Z,14.60
2018-04-15T08:03:56.077Z,14.54
2018-04-15T08:04:56.247Z,14.44
2018-04-15T08:05:56.408Z,14.43
2018-04-15T08:10:57.016Z,14.41
2018-04-15T08:11:57.182Z,14.44
2018-04-15T08:12:57.349Z,14.47
2018-04-15T08:13:57.512Z,14.47
2018-04-15T08:14:57.686Z,14.60
2018-04-15T08:15:57.845Z,14.65
2018-04-15T08:16:58.008Z,14.66
2018-04-15T08:17:58.173Z,14.55
2018-04-15T08:18:58.338Z,14.59
2018-04-15T08:19:58.504Z,14.59
2018-04-15T08:22:40.773Z,14.51
2018-04-15T08:23:41.802Z,14.68
2018-04-15T08:24:41.093Z,14.60
2018-04-15T08:25:41.268Z,14.58
2018-04-15T08:26:41.426Z,14.51
2018-04-15T08:27:41.589Z,14.53
2018-04-15T08:28:41.756Z,14.53
2018-04-15T08:29:41.921Z,14.55
2018-04-15T08:30:42.096Z,14.55
2018-04-15T08:31:42.252Z,14.51
2018-04-15T08:32:42.422Z,14.48
2018-04-15T08:33:42.584Z,14.54
2018-04-15T08:34:42.751Z,14.53
2018-04-15T08:35:42.912Z,14.63
2018-04-15T08:36:43.077Z,14.65
2018-04-15T08:39:25.658Z,14.85
2018-04-15T08:40:25.822Z,14.89
2018-04-15T08:41:25.990Z,15.03
2018-04-15T08:42:26.157Z,15.18
2018-04-15T08:43:26.323Z,15.19
2018-04-15T08:44:26.488Z,15.42
2018-04-15T08:45:26.656Z,15.46
2018-04-15T08:46:26.830Z,15.65
2018-04-15T08:47:26.987Z,15.76
2018-04-15T08:48:27.151Z,15.91
2018-04-15T08:49:27.317Z,15.73
2018-04-15T08:50:27.483Z,15.76
2018-04-15T08:51:27.682Z,15.97
2018-04-15T08:52:27.820Z,16.20
2018-04-15T08:53:27.988Z,16.16
2018-04-15T08:56:10.821Z,16.46
2018-04-15T08:57:10.738Z,16.49
2018-04-15T08:58:10.905Z,16.71
2018-04-15T08:59:11.073Z,16.58
2018-04-15T09:00:11.240Z,16.68
2018-04-15T09:01:11.428Z,16.58
2018-04-15T09:02:11.591Z,16.71
2018-04-15T09:03:11.760Z,16.71
2018-04-15T09:04:11.948Z,16.53
2018-04-15T09:05:12.117Z,16.60
2018-04-15T09:06:12.282Z,16.57
2018-04-15T09:07:12.449Z,16.90
2018-04-15T09:08:12.615Z,16.99
2018-04-15T09:09:12.776Z,17.16
2018-04-15T09:10:12.942Z,17.09
2018-04-15T09:12:55.777Z,17.11
2018-04-15T09:13:55.704Z,17.16
2018-04-15T09:14:55.863Z,17.44
2018-04-15T09:15:56.028Z,17.31
2018-04-15T09:16:56.196Z,17.54
2018-04-15T09:17:56.363Z,17.52
2018-04-15T09:18:56.535Z,17.59
2018-04-15T09:19:56.696Z,18.00
2018-04-15T09:20:56.872Z,18.33
2018-04-15T09:21:57.039Z,18.70
2018-04-15T09:22:57.209Z,19.02
2018-04-15T09:23:57.376Z,19.40
2018-04-15T09:24:57.548Z,19.67
2018-04-15T09:25:57.788Z,19.99
2018-04-15T09:26:57.839Z,19.84
2018-04-15T09:29:30.451Z,19.33
2018-04-15T09:30:30.558Z,19.30
2018-04-15T09:31:30.732Z,19.30
2018-04-15T09:32:30.910Z,19.88
2018-04-15T09:33:31.082Z,19.71
2018-04-15T09:34:31.244Z,20.04
2018-04-15T09:35:31.469Z,20.04
2018-04-15T09:36:31.603Z,19.73
2018-04-15T09:37:31.770Z,19.77
2018-04-15T09:38:31.936Z,19.84
2018-04-15T09:39:32.121Z,19.99
2018-04-15T09:40:32.295Z,20.19
2018-04-15T09:41:32.465Z,20.25
2018-04-15T09:42:32.634Z,20.22
2018-04-15T09:43:32.805Z,20.31
2018-04-15T09:46:15.071Z,20.26
2018-04-15T09:47:15.254Z,20.40
2018-04-15T09:48:15.417Z,20.26
2018-04-15T09:49:15.596Z,20.43
2018-04-15T09:50:15.766Z,20.34
2018-04-15T09:51:15.930Z,20.41
2018-04-15T09:52:16.098Z,20.56
2018-04-15T09:53:16.272Z,20.37
2018-04-15T09:54:16.452Z,20.47
2018-04-15T09:55:16.616Z,20.90
2018-04-15T09:56:16.784Z,20.77
2018-04-15T09:57:16.950Z,20.39
2018-04-15T09:58:17.114Z,20.59
2018-04-15T09:59:17.277Z,20.63
2018-04-15T10:00:17.453Z,20.78
2018-04-15T10:02:59.736Z,21.29
2018-04-15T10:03:59.905Z,21.35
2018-04-15T10:05:00.078Z,21.11
2018-04-15T10:06:00.246Z,21.50
2018-04-15T10:07:00.418Z,21.18
2018-04-15T10:08:00.593Z,20.93
2018-04-15T10:09:00.759Z,20.82
2018-04-15T10:10:00.933Z,20.60
2018-04-15T10:11:01.104Z,20.41
2018-04-15T10:12:01.274Z,20.60
2018-04-15T10:13:01.443Z,20.75
2018-04-15T10:14:01.607Z,21.11
2018-04-15T10:15:01.781Z,21.00
2018-04-15T10:16:01.949Z,20.93
2018-04-15T10:17:02.124Z,20.90
2018-04-15T10:19:34.398Z,20.58
2018-04-15T10:20:34.567Z,20.75
2018-04-15T10:21:34.739Z,21.06
2018-04-15T10:22:34.904Z,21.00
2018-04-15T10:23:37.916Z,20.95
2018-04-15T10:24:35.216Z,21.39
2018-04-15T10:25:35.395Z,21.52
2018-04-15T10:26:35.569Z,21.93
2018-04-15T10:27:35.739Z,21.89
2018-04-15T10:28:35.914Z,22.26
2018-04-15T10:29:44.038Z,22.43
2018-04-15T10:30:36.199Z,22.47
2018-04-15T10:31:36.375Z,22.50
2018-04-15T10:32:36.579Z,22.54
2018-04-15T10:33:44.685Z,22.68
2018-04-15T10:34:36.844Z,22.53
2018-04-15T10:35:37.013Z,22.69
2018-04-15T10:36:37.184Z,22.78
2018-04-15T10:37:37.377Z,22.73
2018-04-15T10:38:37.548Z,22.35
2018-04-15T10:39:37.720Z,22.54
2018-04-15T10:40:37.898Z,22.90
2018-04-15T10:41:38.068Z,23.18
2018-04-15T10:42:38.240Z,23.50
2018-04-15T10:43:38.408Z,23.59
2018-04-15T10:44:38.582Z,23.73
2018-04-15T10:45:38.801Z,23.59
2018-04-15T10:46:38.924Z,23.62
2018-04-15T10:47:39.080Z,23.76
2018-04-15T10:48:39.255Z,23.84
2018-04-15T10:51:21.525Z,23.81
2018-04-15T10:52:22.066Z,23.88
2018-04-15T10:53:28.986Z,23.98
2018-04-15T10:54:22.014Z,23.77
2018-04-15T10:55:22.207Z,23.86
2018-04-15T10:56:22.380Z,23.18
2018-04-15T10:57:22.556Z,22.62
2018-04-15T10:58:22.726Z,22.45
2018-04-15T10:59:23.593Z,22.43
2018-04-15T11:00:23.003Z,22.20
2018-04-15T11:01:23.183Z,21.83
2018-04-15T11:02:23.351Z,21.43
2018-04-15T11:03:23.525Z,21.69
2018-04-15T11:04:24.604Z,21.67
2018-04-15T11:05:23.879Z,21.75
2018-04-15T11:06:24.074Z,21.92
2018-04-15T11:07:24.240Z,22.06
2018-04-15T11:10:47.608Z,22.59
2018-04-15T11:11:47.519Z,22.63
2018-04-15T11:12:49.494Z,22.38
2018-04-15T11:13:48.564Z,22.10
2018-04-15T11:14:47.994Z,22.20
2018-04-15T11:15:56.096Z,21.85
2018-04-15T11:16:48.384Z,21.76
2018-04-15T11:17:48.570Z,21.70
2018-04-15T11:18:48.762Z,21.46
2018-04-15T11:19:48.960Z,21.40
2018-04-15T11:20:49.135Z,21.43
2018-04-15T11:21:49.300Z,21.69
2018-04-15T11:22:49.485Z,21.88
2018-04-15T11:23:49.641Z,21.85
2018-04-15T11:24:49.811Z,21.76
2018-04-15T11:25:49.970Z,21.72
2018-04-15T11:26:50.146Z,21.32
2018-04-15T11:27:50.311Z,21.24
2018-04-15T11:28:58.452Z,21.02
2018-04-15T11:29:50.629Z,21.20
2018-04-15T11:30:50.799Z,21.29
2018-04-15T11:31:50.971Z,21.52
2018-04-15T11:32:51.140Z,21.69
2018-04-15T11:33:51.304Z,21.45
2018-04-15T11:34:51.476Z,20.95
2018-04-15T11:35:51.655Z,20.78
2018-04-15T11:36:51.832Z,20.66
2018-04-15T11:37:51.995Z,20.67
2018-04-15T11:38:52.167Z,20.65
2018-04-15T11:41:25.240Z,21.20
2018-04-15T11:42:25.403Z,21.20
2018-04-15T11:43:25.578Z,21.21
2018-04-15T11:44:25.745Z,21.11
2018-04-15T11:45:25.941Z,21.07
2018-04-15T11:46:33.768Z,21.03
2018-04-15T11:47:26.313Z,21.17
2018-04-15T11:48:26.499Z,21.21
2018-04-15T11:49:26.658Z,21.33
2018-04-15T11:50:26.842Z,21.30
2018-04-15T11:51:35.011Z,21.21
2018-04-15T11:52:27.155Z,20.92
2018-04-15T11:53:27.347Z,21.06
2018-04-15T11:54:27.559Z,21.21
2018-04-15T11:55:27.904Z,21.52
2018-04-15T11:56:28.842Z,21.46
2018-04-15T11:57:35.501Z,21.61
2018-04-15T11:58:28.207Z,21.69
2018-04-15T11:59:28.330Z,21.96
2018-04-15T12:00:28.503Z,22.04
2018-04-15T12:01:28.689Z,22.15
2018-04-15T12:02:28.872Z,21.93
2018-04-15T12:03:29.031Z,21.75
2018-04-15T12:04:29.208Z,21.89
2018-04-15T12:05:29.397Z,21.93
2018-04-15T12:06:29.565Z,22.04
2018-04-15T12:07:29.736Z,22.04
2018-04-15T12:08:29.905Z,22.13
2018-04-15T12:09:30.075Z,22.20
2018-04-15T12:10:30.247Z,21.62
2018-04-15T12:11:30.418Z,21.40
2018-04-15T12:14:03.835Z,21.32
2018-04-15T12:15:03.041Z,21.45
2018-04-15T12:16:03.323Z,21.24
2018-04-15T12:17:11.347Z,21.24
2018-04-15T12:18:03.614Z,21.24
2018-04-15T12:19:03.834Z,21.40
2018-04-15T12:20:04.001Z,21.46
2018-04-15T12:21:04.174Z,21.42
2018-04-15T12:22:04.352Z,21.50
2018-04-15T12:23:04.520Z,21.48
2018-04-15T12:24:04.690Z,21.57
2018-04-15T12:25:04.859Z,21.76
2018-04-15T12:26:05.037Z,21.92
2018-04-15T12:27:05.203Z,21.93
2018-04-15T12:29:37.680Z,21.57
2018-04-15T12:30:37.842Z,21.62
2018-04-15T12:31:38.012Z,21.62
2018-04-15T12:32:38.394Z,21.64
2018-04-15T12:33:38.417Z,21.46
2018-04-15T12:34:38.585Z,21.50
2018-04-15T12:35:38.807Z,21.45
2018-04-15T12:36:38.917Z,21.73
2018-04-15T12:37:39.090Z,21.77
2018-04-15T12:38:39.247Z,21.96
2018-04-15T12:39:39.418Z,21.70
2018-04-15T12:40:39.588Z,21.75
2018-04-15T12:41:39.758Z,21.75
2018-04-15T12:42:39.923Z,21.83
2018-04-15T12:43:40.089Z,21.88
2018-04-15T12:46:12.381Z,21.89
2018-04-15T12:47:12.568Z,21.70
2018-04-15T12:48:12.737Z,21.80
2018-04-15T12:49:12.911Z,21.79
2018-04-15T12:50:13.084Z,21.73
2018-04-15T12:51:13.228Z,21.80
2018-04-15T12:52:13.405Z,21.72
2018-04-15T12:53:20.739Z,21.70
2018-04-15T12:54:14.056Z,21.75
2018-04-15T12:55:14.928Z,21.85
2018-04-15T12:56:14.220Z,21.93
2018-04-15T12:57:14.470Z,21.92
2018-04-15T12:58:14.504Z,22.11
2018-04-15T12:59:22.122Z,22.00
2018-04-15T13:00:14.785Z,22.10
2018-04-15T13:01:14.955Z,22.11
2018-04-15T13:02:15.129Z,22.13
2018-04-15T13:03:15.290Z,22.20
2018-04-15T13:04:15.535Z,22.41
2018-04-15T13:05:15.678Z,22.51
2018-04-15T13:06:15.852Z,22.43
2018-04-15T13:07:16.063Z,21.99
2018-04-15T13:08:16.202Z,22.14
2018-04-15T13:09:16.409Z,22.04
2018-04-15T13:10:16.567Z,21.89
2018-04-15T13:11:16.738Z,21.70
2018-04-15T13:12:16.910Z,21.64
2018-04-15T13:13:17.074Z,21.72
2018-04-15T13:15:59.690Z,21.95
2018-04-15T13:16:59.939Z,22.02
2018-04-15T13:18:00.244Z,22.13
2018-04-15T13:19:00.291Z,22.23
2018-04-15T13:20:01.559Z,22.33
2018-04-15T13:21:00.721Z,22.44
2018-04-15T13:22:00.865Z,22.48
2018-04-15T13:23:01.281Z,22.60
2018-04-15T13:24:01.472Z,22.57
2018-04-15T13:25:01.667Z,22.75
2018-04-15T13:26:01.610Z,22.75
2018-04-15T13:27:02.006Z,22.94
2018-04-15T13:28:01.968Z,23.03
2018-04-15T13:29:02.096Z,23.02
2018-04-15T13:30:02.899Z,23.13
2018-04-15T13:32:42.522Z,23.20
2018-04-15T13:33:42.741Z,23.25
2018-04-15T13:34:43.958Z,23.21
2018-04-15T13:35:44.985Z,23.10
2018-04-15T13:36:43.370Z,23.09
2018-04-15T13:37:43.303Z,23.03
2018-04-15T13:38:43.513Z,23.03
2018-04-15T13:39:43.617Z,22.84
2018-04-15T13:40:43.997Z,22.70
2018-04-15T13:41:43.934Z,22.76
2018-04-15T13:42:44.168Z,22.81
2018-04-15T13:43:44.252Z,22.88
2018-04-15T13:44:44.609Z,23.00
2018-04-15T13:45:44.622Z,23.15
2018-04-15T13:46:45.007Z,23.13
2018-04-15T13:49:25.155Z,23.03
2018-04-15T13:50:25.680Z,22.78
2018-04-15T13:51:26.029Z,22.87
2018-04-15T13:52:25.393Z,22.87
2018-04-15T13:53:25.781Z,22.91
2018-04-15T13:54:27.158Z,22.65
2018-04-15T13:55:26.100Z,22.51
2018-04-15T13:56:26.491Z,22.35
2018-04-15T13:57:26.127Z,22.13
2018-04-15T13:58:26.286Z,21.95
2018-04-15T13:59:26.499Z,22.07
2018-04-15T14:00:26.668Z,22.15
2018-04-15T14:01:26.882Z,22.30
2018-04-15T14:02:26.989Z,22.51
2018-04-15T14:03:27.313Z,22.73
2018-04-15T14:06:09.765Z,22.91
2018-04-15T14:07:09.952Z,22.98
2018-04-15T14:08:10.231Z,23.13
2018-04-15T14:09:14.274Z,23.24
2018-04-15T14:10:10.462Z,23.21
2018-04-15T14:11:10.665Z,23.47
2018-04-15T14:12:10.803Z,23.24
2018-04-15T14:13:11.088Z,23.06
2018-04-15T14:14:11.135Z,23.02
2018-04-15T14:15:11.462Z,22.88
2018-04-15T14:16:12.926Z,22.84
2018-04-15T14:17:11.727Z,22.45
2018-04-15T14:18:12.902Z,22.55
2018-04-15T14:19:12.118Z,22.57
2018-04-15T14:20:12.892Z,22.69
2018-04-15T14:22:56.535Z,23.12
2018-04-15T14:23:54.658Z,23.25
2018-04-15T14:24:54.906Z,23.40
2018-04-15T14:25:55.102Z,23.58
2018-04-15T14:26:55.433Z,23.69